sensor_id;sensor_type;location;lat;lon;timestamp;P1;durP1;ratioP1;P2;durP2;ratioP2
46563;SDS011;32291;52.010;4.446;2023-05-24T00:01:00;12.55;;;4.05;;
46563;SDS011;32291;52.010;4.446;2023-05-24T00:02:02;12.73;;;4.95;;
46563;SDS011;32291;52.010;4.446;2023-05-24T00:03:07;8.98;;;4.45;;
46563;SDS011;32291;52.010;4.446;2023-05-24T00:04:09;17.15;;;4.90;;
46563;SDS011;32291;52.010;4.446;2023-05-24T00:05:12;11.00;;;4.43;;
46563;SDS011;32291;52.010;4.446;2023-05-24T00:06:16;11.80;;;4.03;;
46563;SDS011;32291;52.010;4.446;2023-05-24T00:07:19;16.92;;;4.60;;
46563;SDS011;32291;52.010;4.446;2023-05-24T00:08:20;9.32;;;4.05;;
46563;SDS011;32291;52.010;4.446;2023-05-24T00:09:22;10.40;;;3.83;;
46563;SDS011;32291;52.010;4.446;2023-05-24T00:10:24;11.75;;;4.05;;
46563;SDS011;32291;52.010;4.446;2023-05-24T00:11:26;11.32;;;4.47;;
46563;SDS011;32291;52.010;4.446;2023-05-24T00:12:28;13.27;;;4.07;;
46563;SDS011;32291;52.010;4.446;2023-05-24T00:13:30;11.73;;;3.80;;
46563;SDS011;32291;52.010;4.446;2023-05-24T00:14:31;11.95;;;3.95;;
46563;SDS011;32291;52.010;4.446;2023-05-24T00:15:33;10.35;;;4.05;;
46563;SDS011;32291;52.010;4.446;2023-05-24T00:16:34;9.48;;;4.32;;
46563;SDS011;32291;52.010;4.446;2023-05-24T00:17:36;17.35;;;5.18;;
46563;SDS011;32291;52.010;4.446;2023-05-24T00:18:41;11.23;;;4.20;;
46563;SDS011;32291;52.010;4.446;2023-05-24T00:19:46;13.77;;;4.70;;
46563;SDS011;32291;52.010;4.446;2023-05-24T00:20:48;10.48;;;4.03;;
46563;SDS011;32291;52.010;4.446;2023-05-24T00:21:51;12.00;;;4.50;;
46563;SDS011;32291;52.010;4.446;2023-05-24T00:22:53;13.63;;;4.55;;
46563;SDS011;32291;52.010;4.446;2023-05-24T00:23:55;15.20;;;4.75;;
46563;SDS011;32291;52.010;4.446;2023-05-24T00:24:56;11.20;;;4.85;;
46563;SDS011;32291;52.010;4.446;2023-05-24T00:25:58;12.38;;;4.57;;
46563;SDS011;32291;52.010;4.446;2023-05-24T00:27:01;8.88;;;4.20;;
46563;SDS011;32291;52.010;4.446;2023-05-24T00:28:02;14.48;;;4.80;;
46563;SDS011;32291;52.010;4.446;2023-05-24T00:29:04;20.00;;;4.68;;
46563;SDS011;32291;52.010;4.446;2023-05-24T00:30:06;13.73;;;4.97;;
46563;SDS011;32291;52.010;4.446;2023-05-24T00:31:08;11.40;;;4.28;;
46563;SDS011;32291;52.010;4.446;2023-05-24T00:32:10;14.40;;;4.57;;
46563;SDS011;32291;52.010;4.446;2023-05-24T00:33:11;13.10;;;5.13;;
46563;SDS011;32291;52.010;4.446;2023-05-24T00:34:13;8.45;;;3.90;;
46563;SDS011;32291;52.010;4.446;2023-05-24T00:35:15;10.65;;;4.10;;
46563;SDS011;32291;52.010;4.446;2023-05-24T00:36:16;11.15;;;4.18;;
46563;SDS011;32291;52.010;4.446;2023-05-24T00:37:18;11.43;;;4.30;;
46563;SDS011;32291;52.010;4.446;2023-05-24T00:38:29;14.00;;;4.47;;
46563;SDS011;32291;52.010;4.446;2023-05-24T00:39:31;11.30;;;4.60;;
46563;SDS011;32291;52.010;4.446;2023-05-24T00:40:32;8.88;;;4.05;;
46563;SDS011;32291;52.010;4.446;2023-05-24T00:41:34;7.05;;;4.07;;
46563;SDS011;32291;52.010;4.446;2023-05-24T00:42:36;11.60;;;4.20;;
46563;SDS011;32291;52.010;4.446;2023-05-24T00:43:38;10.80;;;4.28;;
46563;SDS011;32291;52.010;4.446;2023-05-24T00:44:42;12.05;;;4.60;;
46563;SDS011;32291;52.010;4.446;2023-05-24T00:45:44;10.93;;;4.55;;
46563;SDS011;32291;52.010;4.446;2023-05-24T00:46:45;10.30;;;4.03;;
46563;SDS011;32291;52.010;4.446;2023-05-24T00:47:48;7.75;;;4.00;;
46563;SDS011;32291;52.010;4.446;2023-05-24T00:48:50;12.48;;;4.18;;
46563;SDS011;32291;52.010;4.446;2023-05-24T00:49:52;13.45;;;4.80;;
46563;SDS011;32291;52.010;4.446;2023-05-24T00:50:54;11.93;;;4.57;;
46563;SDS011;32291;52.010;4.446;2023-05-24T00:51:57;8.70;;;4.10;;
46563;SDS011;32291;52.010;4.446;2023-05-24T00:53:01;8.35;;;3.90;;
46563;SDS011;32291;52.010;4.446;2023-05-24T00:54:04;13.57;;;4.25;;
46563;SDS011;32291;52.010;4.446;2023-05-24T00:55:07;12.32;;;4.35;;
46563;SDS011;32291;52.010;4.446;2023-05-24T00:56:10;11.23;;;4.10;;
46563;SDS011;32291;52.010;4.446;2023-05-24T00:57:14;10.55;;;4.50;;
46563;SDS011;32291;52.010;4.446;2023-05-24T00:58:18;7.13;;;3.80;;
46563;SDS011;32291;52.010;4.446;2023-05-24T00:59:21;10.35;;;4.95;;
46563;SDS011;32291;52.010;4.446;2023-05-24T01:00:24;12.00;;;4.40;;
46563;SDS011;32291;52.010;4.446;2023-05-24T01:01:27;13.40;;;4.88;;
46563;SDS011;32291;52.010;4.446;2023-05-24T01:02:30;13.20;;;4.90;;
46563;SDS011;32291;52.010;4.446;2023-05-24T01:03:32;10.40;;;4.55;;
46563;SDS011;32291;52.010;4.446;2023-05-24T01:04:35;10.05;;;4.60;;
46563;SDS011;32291;52.010;4.446;2023-05-24T01:05:37;10.95;;;4.22;;
46563;SDS011;32291;52.010;4.446;2023-05-24T01:06:50;13.93;;;5.00;;
46563;SDS011;32291;52.010;4.446;2023-05-24T01:13:17;11.60;;;4.10;;
46563;SDS011;32291;52.010;4.446;2023-05-24T01:17:35;11.40;;;5.28;;
46563;SDS011;32291;52.010;4.446;2023-05-24T01:18:54;15.40;;;4.88;;
46563;SDS011;32291;52.010;4.446;2023-05-24T01:20:03;11.15;;;5.18;;
46563;SDS011;32291;52.010;4.446;2023-05-24T01:27:14;8.75;;;4.20;;
46563;SDS011;32291;52.010;4.446;2023-05-24T01:28:17;14.98;;;5.10;;
46563;SDS011;32291;52.010;4.446;2023-05-24T01:29:22;9.75;;;4.85;;
46563;SDS011;32291;52.010;4.446;2023-05-24T01:30:26;13.52;;;6.03;;
46563;SDS011;32291;52.010;4.446;2023-05-24T01:31:29;10.27;;;4.47;;
46563;SDS011;32291;52.010;4.446;2023-05-24T01:32:31;12.93;;;4.63;;
46563;SDS011;32291;52.010;4.446;2023-05-24T01:33:39;9.38;;;4.43;;
46563;SDS011;32291;52.010;4.446;2023-05-24T01:34:44;10.07;;;4.43;;
46563;SDS011;32291;52.010;4.446;2023-05-24T01:35:46;10.32;;;4.32;;
46563;SDS011;32291;52.010;4.446;2023-05-24T01:36:47;13.20;;;4.85;;
46563;SDS011;32291;52.010;4.446;2023-05-24T01:37:49;12.70;;;4.85;;
46563;SDS011;32291;52.010;4.446;2023-05-24T01:38:50;11.85;;;4.95;;
46563;SDS011;32291;52.010;4.446;2023-05-24T01:39:52;14.07;;;4.38;;
46563;SDS011;32291;52.010;4.446;2023-05-24T01:40:57;12.52;;;5.85;;
46563;SDS011;32291;52.010;4.446;2023-05-24T01:42:51;10.07;;;4.82;;
46563;SDS011;32291;52.010;4.446;2023-05-24T01:44:19;11.57;;;4.35;;
46563;SDS011;32291;52.010;4.446;2023-05-24T01:45:41;10.90;;;4.30;;
46563;SDS011;32291;52.010;4.446;2023-05-24T01:48:39;13.25;;;5.30;;
46563;SDS011;32291;52.010;4.446;2023-05-24T01:50:10;7.43;;;4.13;;
46563;SDS011;32291;52.010;4.446;2023-05-24T01:51:22;13.05;;;4.53;;
46563;SDS011;32291;52.010;4.446;2023-05-24T01:52:30;15.45;;;4.68;;
46563;SDS011;32291;52.010;4.446;2023-05-24T01:53:39;9.52;;;4.90;;
46563;SDS011;32291;52.010;4.446;2023-05-24T01:54:47;7.68;;;4.13;;
46563;SDS011;32291;52.010;4.446;2023-05-24T01:55:54;14.23;;;5.40;;
46563;SDS011;32291;52.010;4.446;2023-05-24T01:56:58;13.27;;;4.88;;
46563;SDS011;32291;52.010;4.446;2023-05-24T01:58:07;11.18;;;5.25;;
46563;SDS011;32291;52.010;4.446;2023-05-24T01:59:11;10.88;;;5.32;;
46563;SDS011;32291;52.010;4.446;2023-05-24T02:00:14;12.70;;;5.05;;
46563;SDS011;32291;52.010;4.446;2023-05-24T02:01:19;11.00;;;4.55;;
46563;SDS011;32291;52.010;4.446;2023-05-24T02:02:21;8.23;;;4.20;;
46563;SDS011;32291;52.010;4.446;2023-05-24T02:03:22;12.88;;;4.75;;
46563;SDS011;32291;52.010;4.446;2023-05-24T02:04:24;9.43;;;4.32;;
46563;SDS011;32291;52.010;4.446;2023-05-24T02:05:26;10.35;;;4.32;;
46563;SDS011;32291;52.010;4.446;2023-05-24T02:06:28;15.50;;;5.43;;
46563;SDS011;32291;52.010;4.446;2023-05-24T02:07:30;11.43;;;4.90;;
46563;SDS011;32291;52.010;4.446;2023-05-24T02:08:32;16.92;;;6.75;;
46563;SDS011;32291;52.010;4.446;2023-05-24T02:09:33;11.23;;;5.13;;
46563;SDS011;32291;52.010;4.446;2023-05-24T02:10:36;14.07;;;5.95;;
46563;SDS011;32291;52.010;4.446;2023-05-24T02:11:39;14.18;;;4.85;;
46563;SDS011;32291;52.010;4.446;2023-05-24T02:12:40;14.55;;;4.88;;
46563;SDS011;32291;52.010;4.446;2023-05-24T02:13:42;10.55;;;4.40;;
46563;SDS011;32291;52.010;4.446;2023-05-24T02:14:44;14.32;;;5.57;;
46563;SDS011;32291;52.010;4.446;2023-05-24T02:15:46;13.75;;;4.78;;
46563;SDS011;32291;52.010;4.446;2023-05-24T02:16:47;17.45;;;5.90;;
46563;SDS011;32291;52.010;4.446;2023-05-24T02:17:50;14.50;;;5.75;;
46563;SDS011;32291;52.010;4.446;2023-05-24T02:18:54;13.85;;;4.85;;
46563;SDS011;32291;52.010;4.446;2023-05-24T02:20:00;14.38;;;4.88;;
46563;SDS011;32291;52.010;4.446;2023-05-24T02:21:03;14.30;;;5.55;;
46563;SDS011;32291;52.010;4.446;2023-05-24T02:22:05;15.82;;;5.72;;
46563;SDS011;32291;52.010;4.446;2023-05-24T02:23:07;11.68;;;5.60;;
46563;SDS011;32291;52.010;4.446;2023-05-24T02:24:09;15.45;;;5.32;;
46563;SDS011;32291;52.010;4.446;2023-05-24T02:25:12;12.63;;;5.50;;
46563;SDS011;32291;52.010;4.446;2023-05-24T02:26:14;15.27;;;5.95;;
46563;SDS011;32291;52.010;4.446;2023-05-24T02:27:17;16.00;;;5.80;;
46563;SDS011;32291;52.010;4.446;2023-05-24T02:28:19;16.55;;;5.35;;
46563;SDS011;32291;52.010;4.446;2023-05-24T02:29:21;11.68;;;5.35;;
46563;SDS011;32291;52.010;4.446;2023-05-24T02:30:23;11.32;;;5.25;;
46563;SDS011;32291;52.010;4.446;2023-05-24T02:31:25;16.30;;;5.57;;
46563;SDS011;32291;52.010;4.446;2023-05-24T02:32:28;16.30;;;5.55;;
46563;SDS011;32291;52.010;4.446;2023-05-24T02:33:29;14.85;;;5.22;;
46563;SDS011;32291;52.010;4.446;2023-05-24T02:34:31;11.48;;;4.82;;
46563;SDS011;32291;52.010;4.446;2023-05-24T02:35:33;17.98;;;5.13;;
46563;SDS011;32291;52.010;4.446;2023-05-24T02:36:35;15.70;;;5.72;;
46563;SDS011;32291;52.010;4.446;2023-05-24T02:37:37;12.57;;;5.50;;
46563;SDS011;32291;52.010;4.446;2023-05-24T02:38:38;15.63;;;5.47;;
46563;SDS011;32291;52.010;4.446;2023-05-24T02:39:40;15.48;;;5.15;;
46563;SDS011;32291;52.010;4.446;2023-05-24T02:40:42;14.27;;;5.32;;
46563;SDS011;32291;52.010;4.446;2023-05-24T02:41:43;12.85;;;5.93;;
46563;SDS011;32291;52.010;4.446;2023-05-24T02:42:45;10.70;;;4.97;;
46563;SDS011;32291;52.010;4.446;2023-05-24T02:43:46;10.38;;;5.10;;
46563;SDS011;32291;52.010;4.446;2023-05-24T02:44:48;20.45;;;6.15;;
46563;SDS011;32291;52.010;4.446;2023-05-24T02:45:52;14.00;;;5.65;;
46563;SDS011;32291;52.010;4.446;2023-05-24T02:46:54;10.38;;;4.78;;
46563;SDS011;32291;52.010;4.446;2023-05-24T02:47:55;19.90;;;6.72;;
46563;SDS011;32291;52.010;4.446;2023-05-24T02:48:57;21.10;;;5.75;;
46563;SDS011;32291;52.010;4.446;2023-05-24T02:49:59;16.88;;;6.45;;
46563;SDS011;32291;52.010;4.446;2023-05-24T02:51:01;18.08;;;5.88;;
46563;SDS011;32291;52.010;4.446;2023-05-24T02:52:03;14.48;;;5.40;;
46563;SDS011;32291;52.010;4.446;2023-05-24T02:53:05;13.23;;;5.18;;
46563;SDS011;32291;52.010;4.446;2023-05-24T02:54:08;11.07;;;5.50;;
46563;SDS011;32291;52.010;4.446;2023-05-24T02:55:10;12.20;;;5.47;;
46563;SDS011;32291;52.010;4.446;2023-05-24T02:56:11;15.23;;;6.28;;
46563;SDS011;32291;52.010;4.446;2023-05-24T02:57:13;8.63;;;5.35;;
46563;SDS011;32291;52.010;4.446;2023-05-24T02:58:16;9.88;;;4.93;;
46563;SDS011;32291;52.010;4.446;2023-05-24T02:59:18;11.63;;;5.13;;
46563;SDS011;32291;52.010;4.446;2023-05-24T03:00:20;13.82;;;5.07;;
46563;SDS011;32291;52.010;4.446;2023-05-24T03:01:22;13.45;;;5.10;;
46563;SDS011;32291;52.010;4.446;2023-05-24T03:02:24;11.48;;;4.90;;
46563;SDS011;32291;52.010;4.446;2023-05-24T03:03:28;12.13;;;5.03;;
46563;SDS011;32291;52.010;4.446;2023-05-24T03:04:30;9.48;;;4.28;;
46563;SDS011;32291;52.010;4.446;2023-05-24T03:05:32;12.20;;;4.65;;
46563;SDS011;32291;52.010;4.446;2023-05-24T03:06:34;8.73;;;4.65;;
46563;SDS011;32291;52.010;4.446;2023-05-24T03:07:35;13.40;;;4.95;;
46563;SDS011;32291;52.010;4.446;2023-05-24T03:08:37;10.20;;;5.03;;
46563;SDS011;32291;52.010;4.446;2023-05-24T03:09:39;12.25;;;5.00;;
46563;SDS011;32291;52.010;4.446;2023-05-24T03:10:40;12.90;;;5.05;;
46563;SDS011;32291;52.010;4.446;2023-05-24T03:11:43;14.15;;;5.05;;
46563;SDS011;32291;52.010;4.446;2023-05-24T03:12:45;13.10;;;5.00;;
46563;SDS011;32291;52.010;4.446;2023-05-24T03:13:47;13.13;;;5.32;;
46563;SDS011;32291;52.010;4.446;2023-05-24T03:14:49;7.43;;;4.47;;
46563;SDS011;32291;52.010;4.446;2023-05-24T03:15:51;12.38;;;5.47;;
46563;SDS011;32291;52.010;4.446;2023-05-24T03:16:53;8.63;;;5.13;;
46563;SDS011;32291;52.010;4.446;2023-05-24T03:17:54;11.10;;;5.32;;
46563;SDS011;32291;52.010;4.446;2023-05-24T03:18:57;11.35;;;5.20;;
46563;SDS011;32291;52.010;4.446;2023-05-24T03:20:00;10.05;;;5.40;;
46563;SDS011;32291;52.010;4.446;2023-05-24T03:21:01;13.63;;;5.47;;
46563;SDS011;32291;52.010;4.446;2023-05-24T03:22:03;10.98;;;5.30;;
46563;SDS011;32291;52.010;4.446;2023-05-24T03:23:05;10.15;;;5.45;;
46563;SDS011;32291;52.010;4.446;2023-05-24T03:24:09;14.45;;;5.20;;
46563;SDS011;32291;52.010;4.446;2023-05-24T03:25:12;13.88;;;6.18;;
46563;SDS011;32291;52.010;4.446;2023-05-24T03:26:14;14.90;;;6.63;;
46563;SDS011;32291;52.010;4.446;2023-05-24T03:27:18;13.05;;;5.20;;
46563;SDS011;32291;52.010;4.446;2023-05-24T03:28:20;13.25;;;5.78;;
46563;SDS011;32291;52.010;4.446;2023-05-24T03:29:21;11.55;;;5.15;;
46563;SDS011;32291;52.010;4.446;2023-05-24T03:30:23;14.68;;;5.57;;
46563;SDS011;32291;52.010;4.446;2023-05-24T03:31:25;14.73;;;5.88;;
46563;SDS011;32291;52.010;4.446;2023-05-24T03:32:26;11.55;;;5.88;;
46563;SDS011;32291;52.010;4.446;2023-05-24T03:33:28;13.93;;;6.25;;
46563;SDS011;32291;52.010;4.446;2023-05-24T03:34:30;13.60;;;5.65;;
46563;SDS011;32291;52.010;4.446;2023-05-24T03:35:31;14.43;;;6.30;;
46563;SDS011;32291;52.010;4.446;2023-05-24T03:36:33;12.10;;;5.63;;
46563;SDS011;32291;52.010;4.446;2023-05-24T03:37:35;17.20;;;5.60;;
46563;SDS011;32291;52.010;4.446;2023-05-24T03:38:36;13.45;;;7.15;;
46563;SDS011;32291;52.010;4.446;2023-05-24T03:39:38;8.70;;;5.55;;
46563;SDS011;32291;52.010;4.446;2023-05-24T03:40:40;12.52;;;5.57;;
46563;SDS011;32291;52.010;4.446;2023-05-24T03:41:42;11.07;;;5.60;;
46563;SDS011;32291;52.010;4.446;2023-05-24T03:42:44;10.75;;;5.10;;
46563;SDS011;32291;52.010;4.446;2023-05-24T03:43:46;11.93;;;5.55;;
46563;SDS011;32291;52.010;4.446;2023-05-24T03:44:48;11.48;;;5.35;;
46563;SDS011;32291;52.010;4.446;2023-05-24T03:45:50;12.98;;;5.18;;
46563;SDS011;32291;52.010;4.446;2023-05-24T03:46:52;6.55;;;4.90;;
46563;SDS011;32291;52.010;4.446;2023-05-24T03:47:54;12.35;;;5.57;;
46563;SDS011;32291;52.010;4.446;2023-05-24T03:48:55;11.63;;;5.35;;
46563;SDS011;32291;52.010;4.446;2023-05-24T03:49:57;9.80;;;4.70;;
46563;SDS011;32291;52.010;4.446;2023-05-24T03:50:59;9.57;;;4.90;;
46563;SDS011;32291;52.010;4.446;2023-05-24T03:52:01;9.35;;;6.32;;
46563;SDS011;32291;52.010;4.446;2023-05-24T03:53:03;8.18;;;4.90;;
46563;SDS011;32291;52.010;4.446;2023-05-24T03:54:05;12.75;;;6.03;;
46563;SDS011;32291;52.010;4.446;2023-05-24T03:55:07;12.02;;;5.90;;
46563;SDS011;32291;52.010;4.446;2023-05-24T03:56:09;11.52;;;5.45;;
46563;SDS011;32291;52.010;4.446;2023-05-24T03:57:11;13.45;;;5.63;;
46563;SDS011;32291;52.010;4.446;2023-05-24T03:58:13;9.82;;;5.50;;
46563;SDS011;32291;52.010;4.446;2023-05-24T03:59:14;9.73;;;6.15;;
46563;SDS011;32291;52.010;4.446;2023-05-24T04:00:16;11.95;;;5.57;;
46563;SDS011;32291;52.010;4.446;2023-05-24T04:01:18;12.05;;;6.22;;
46563;SDS011;32291;52.010;4.446;2023-05-24T04:02:20;11.65;;;5.50;;
46563;SDS011;32291;52.010;4.446;2023-05-24T04:03:22;11.77;;;5.50;;
46563;SDS011;32291;52.010;4.446;2023-05-24T04:04:25;11.32;;;5.25;;
46563;SDS011;32291;52.010;4.446;2023-05-24T04:05:27;12.95;;;5.38;;
46563;SDS011;32291;52.010;4.446;2023-05-24T04:06:29;11.93;;;5.32;;
46563;SDS011;32291;52.010;4.446;2023-05-24T04:07:31;9.40;;;5.63;;
46563;SDS011;32291;52.010;4.446;2023-05-24T04:08:34;10.35;;;5.47;;
46563;SDS011;32291;52.010;4.446;2023-05-24T04:09:35;9.57;;;5.80;;
46563;SDS011;32291;52.010;4.446;2023-05-24T04:10:37;10.50;;;6.22;;
46563;SDS011;32291;52.010;4.446;2023-05-24T04:11:39;15.88;;;6.60;;
46563;SDS011;32291;52.010;4.446;2023-05-24T04:12:40;13.90;;;6.68;;
46563;SDS011;32291;52.010;4.446;2023-05-24T04:13:42;14.23;;;6.70;;
46563;SDS011;32291;52.010;4.446;2023-05-24T04:14:44;10.00;;;5.93;;
46563;SDS011;32291;52.010;4.446;2023-05-24T04:15:46;11.27;;;5.78;;
46563;SDS011;32291;52.010;4.446;2023-05-24T04:16:48;14.40;;;6.38;;
46563;SDS011;32291;52.010;4.446;2023-05-24T04:17:51;14.23;;;6.93;;
46563;SDS011;32291;52.010;4.446;2023-05-24T04:18:55;10.52;;;6.10;;
46563;SDS011;32291;52.010;4.446;2023-05-24T04:19:57;12.00;;;6.25;;
46563;SDS011;32291;52.010;4.446;2023-05-24T04:20:58;11.57;;;5.97;;
46563;SDS011;32291;52.010;4.446;2023-05-24T04:22:00;12.73;;;6.45;;
46563;SDS011;32291;52.010;4.446;2023-05-24T04:23:03;12.15;;;6.88;;
46563;SDS011;32291;52.010;4.446;2023-05-24T04:24:05;14.05;;;6.43;;
46563;SDS011;32291;52.010;4.446;2023-05-24T04:25:07;12.43;;;6.15;;
46563;SDS011;32291;52.010;4.446;2023-05-24T04:26:09;11.32;;;5.80;;
46563;SDS011;32291;52.010;4.446;2023-05-24T04:27:12;15.48;;;6.43;;
46563;SDS011;32291;52.010;4.446;2023-05-24T04:28:14;14.95;;;6.03;;
46563;SDS011;32291;52.010;4.446;2023-05-24T04:29:16;11.00;;;6.18;;
46563;SDS011;32291;52.010;4.446;2023-05-24T04:30:18;17.05;;;6.25;;
46563;SDS011;32291;52.010;4.446;2023-05-24T04:31:20;15.68;;;6.32;;
46563;SDS011;32291;52.010;4.446;2023-05-24T04:32:22;13.13;;;5.75;;
46563;SDS011;32291;52.010;4.446;2023-05-24T04:33:24;8.65;;;6.13;;
46563;SDS011;32291;52.010;4.446;2023-05-24T04:34:27;13.18;;;6.07;;
46563;SDS011;32291;52.010;4.446;2023-05-24T04:35:33;13.23;;;5.72;;
46563;SDS011;32291;52.010;4.446;2023-05-24T04:36:35;13.15;;;5.82;;
46563;SDS011;32291;52.010;4.446;2023-05-24T04:37:37;12.18;;;5.20;;
46563;SDS011;32291;52.010;4.446;2023-05-24T04:38:40;9.48;;;4.90;;
46563;SDS011;32291;52.010;4.446;2023-05-24T04:39:42;13.50;;;5.97;;
46563;SDS011;32291;52.010;4.446;2023-05-24T04:40:45;10.55;;;5.38;;
46563;SDS011;32291;52.010;4.446;2023-05-24T04:41:47;10.88;;;5.63;;
46563;SDS011;32291;52.010;4.446;2023-05-24T04:42:53;12.52;;;5.45;;
46563;SDS011;32291;52.010;4.446;2023-05-24T04:43:54;11.93;;;5.57;;
46563;SDS011;32291;52.010;4.446;2023-05-24T04:44:56;11.45;;;5.30;;
46563;SDS011;32291;52.010;4.446;2023-05-24T04:45:59;12.02;;;5.65;;
46563;SDS011;32291;52.010;4.446;2023-05-24T04:47:00;10.93;;;4.47;;
46563;SDS011;32291;52.010;4.446;2023-05-24T04:48:03;13.02;;;5.43;;
46563;SDS011;32291;52.010;4.446;2023-05-24T04:49:05;11.60;;;5.13;;
46563;SDS011;32291;52.010;4.446;2023-05-24T04:50:08;11.40;;;5.45;;
46563;SDS011;32291;52.010;4.446;2023-05-24T04:51:10;13.57;;;5.40;;
46563;SDS011;32291;52.010;4.446;2023-05-24T04:52:12;10.23;;;4.90;;
46563;SDS011;32291;52.010;4.446;2023-05-24T04:53:15;11.82;;;4.93;;
46563;SDS011;32291;52.010;4.446;2023-05-24T04:54:17;13.10;;;4.80;;
46563;SDS011;32291;52.010;4.446;2023-05-24T04:55:18;12.75;;;5.28;;
46563;SDS011;32291;52.010;4.446;2023-05-24T04:56:20;12.77;;;5.75;;
46563;SDS011;32291;52.010;4.446;2023-05-24T04:57:22;15.00;;;6.15;;
46563;SDS011;32291;52.010;4.446;2023-05-24T04:58:24;14.27;;;5.07;;
46563;SDS011;32291;52.010;4.446;2023-05-24T04:59:26;16.20;;;4.68;;
46563;SDS011;32291;52.010;4.446;2023-05-24T05:00:27;17.45;;;5.20;;
46563;SDS011;32291;52.010;4.446;2023-05-24T05:01:29;15.35;;;5.95;;
46563;SDS011;32291;52.010;4.446;2023-05-24T05:02:32;15.75;;;5.28;;
46563;SDS011;32291;52.010;4.446;2023-05-24T05:03:34;11.38;;;5.57;;
46563;SDS011;32291;52.010;4.446;2023-05-24T05:04:36;12.88;;;4.85;;
46563;SDS011;32291;52.010;4.446;2023-05-24T05:05:37;12.60;;;4.82;;
46563;SDS011;32291;52.010;4.446;2023-05-24T05:06:39;16.33;;;5.40;;
46563;SDS011;32291;52.010;4.446;2023-05-24T05:07:44;12.18;;;4.65;;
46563;SDS011;32291;52.010;4.446;2023-05-24T05:08:46;11.25;;;5.30;;
46563;SDS011;32291;52.010;4.446;2023-05-24T05:09:48;12.82;;;5.00;;
46563;SDS011;32291;52.010;4.446;2023-05-24T05:10:49;17.08;;;6.25;;
46563;SDS011;32291;52.010;4.446;2023-05-24T05:11:51;11.00;;;4.25;;
46563;SDS011;32291;52.010;4.446;2023-05-24T05:12:53;13.57;;;5.35;;
46563;SDS011;32291;52.010;4.446;2023-05-24T05:13:55;13.00;;;4.50;;
46563;SDS011;32291;52.010;4.446;2023-05-24T05:14:57;12.32;;;4.93;;
46563;SDS011;32291;52.010;4.446;2023-05-24T05:15:59;11.82;;;4.72;;
46563;SDS011;32291;52.010;4.446;2023-05-24T05:17:00;10.82;;;4.47;;
46563;SDS011;32291;52.010;4.446;2023-05-24T05:18:02;12.05;;;4.47;;
46563;SDS011;32291;52.010;4.446;2023-05-24T05:19:03;14.50;;;4.55;;
46563;SDS011;32291;52.010;4.446;2023-05-24T05:20:05;17.60;;;5.25;;
46563;SDS011;32291;52.010;4.446;2023-05-24T05:21:08;11.90;;;4.97;;
46563;SDS011;32291;52.010;4.446;2023-05-24T05:22:09;13.43;;;5.00;;
46563;SDS011;32291;52.010;4.446;2023-05-24T05:23:11;13.23;;;4.45;;
46563;SDS011;32291;52.010;4.446;2023-05-24T05:24:13;10.90;;;4.65;;
46563;SDS011;32291;52.010;4.446;2023-05-24T05:25:16;12.05;;;4.55;;
46563;SDS011;32291;52.010;4.446;2023-05-24T05:26:18;14.63;;;5.10;;
46563;SDS011;32291;52.010;4.446;2023-05-24T05:27:19;14.27;;;4.57;;
46563;SDS011;32291;52.010;4.446;2023-05-24T05:28:21;11.00;;;3.95;;
46563;SDS011;32291;52.010;4.446;2023-05-24T05:29:23;14.32;;;4.85;;
46563;SDS011;32291;52.010;4.446;2023-05-24T05:30:25;16.08;;;5.07;;
46563;SDS011;32291;52.010;4.446;2023-05-24T05:31:28;13.82;;;4.43;;
46563;SDS011;32291;52.010;4.446;2023-05-24T05:32:31;16.88;;;4.22;;
46563;SDS011;32291;52.010;4.446;2023-05-24T05:33:32;14.32;;;4.68;;
46563;SDS011;32291;52.010;4.446;2023-05-24T05:34:34;10.90;;;4.00;;
46563;SDS011;32291;52.010;4.446;2023-05-24T05:35:36;13.35;;;3.90;;
46563;SDS011;32291;52.010;4.446;2023-05-24T05:36:38;10.63;;;3.75;;
46563;SDS011;32291;52.010;4.446;2023-05-24T05:37:41;13.07;;;4.18;;
46563;SDS011;32291;52.010;4.446;2023-05-24T05:38:42;11.98;;;4.22;;
46563;SDS011;32291;52.010;4.446;2023-05-24T05:39:44;11.52;;;4.40;;
46563;SDS011;32291;52.010;4.446;2023-05-24T05:40:46;10.55;;;3.80;;
46563;SDS011;32291;52.010;4.446;2023-05-24T05:41:47;14.73;;;4.57;;
46563;SDS011;32291;52.010;4.446;2023-05-24T05:42:49;9.63;;;3.67;;
46563;SDS011;32291;52.010;4.446;2023-05-24T05:43:50;12.80;;;4.05;;
46563;SDS011;32291;52.010;4.446;2023-05-24T05:44:52;9.73;;;4.07;;
46563;SDS011;32291;52.010;4.446;2023-05-24T05:45:54;15.98;;;4.18;;
46563;SDS011;32291;52.010;4.446;2023-05-24T05:46:57;12.45;;;3.90;;
46563;SDS011;32291;52.010;4.446;2023-05-24T05:47:58;13.05;;;5.20;;
46563;SDS011;32291;52.010;4.446;2023-05-24T05:49:00;11.45;;;3.92;;
46563;SDS011;32291;52.010;4.446;2023-05-24T05:50:02;14.63;;;4.00;;
46563;SDS011;32291;52.010;4.446;2023-05-24T05:51:04;15.00;;;3.92;;
46563;SDS011;32291;52.010;4.446;2023-05-24T05:52:06;14.73;;;3.95;;
46563;SDS011;32291;52.010;4.446;2023-05-24T05:53:07;9.15;;;3.58;;
46563;SDS011;32291;52.010;4.446;2023-05-24T05:54:09;11.32;;;3.40;;
46563;SDS011;32291;52.010;4.446;2023-05-24T05:55:15;8.60;;;2.97;;
46563;SDS011;32291;52.010;4.446;2023-05-24T05:56:16;13.25;;;4.50;;
46563;SDS011;32291;52.010;4.446;2023-05-24T05:57:18;10.32;;;3.35;;
46563;SDS011;32291;52.010;4.446;2023-05-24T05:58:24;10.38;;;3.90;;
46563;SDS011;32291;52.010;4.446;2023-05-24T05:59:26;15.82;;;3.80;;
46563;SDS011;32291;52.010;4.446;2023-05-24T06:00:28;12.18;;;3.83;;
46563;SDS011;32291;52.010;4.446;2023-05-24T06:01:30;9.10;;;3.65;;
46563;SDS011;32291;52.010;4.446;2023-05-24T06:02:31;13.18;;;3.85;;
46563;SDS011;32291;52.010;4.446;2023-05-24T06:03:33;13.80;;;3.65;;
46563;SDS011;32291;52.010;4.446;2023-05-24T06:04:35;14.52;;;3.42;;
46563;SDS011;32291;52.010;4.446;2023-05-24T06:05:37;12.32;;;3.65;;
46563;SDS011;32291;52.010;4.446;2023-05-24T06:06:39;10.43;;;3.13;;
46563;SDS011;32291;52.010;4.446;2023-05-24T06:07:41;9.75;;;3.08;;
46563;SDS011;32291;52.010;4.446;2023-05-24T06:08:43;11.85;;;3.72;;
46563;SDS011;32291;52.010;4.446;2023-05-24T06:09:45;12.00;;;3.63;;
46563;SDS011;32291;52.010;4.446;2023-05-24T06:10:46;13.63;;;3.55;;
46563;SDS011;32291;52.010;4.446;2023-05-24T06:11:48;12.52;;;3.67;;
46563;SDS011;32291;52.010;4.446;2023-05-24T06:12:50;12.38;;;4.53;;
46563;SDS011;32291;52.010;4.446;2023-05-24T06:13:52;11.07;;;3.63;;
46563;SDS011;32291;52.010;4.446;2023-05-24T06:14:54;10.75;;;3.22;;
46563;SDS011;32291;52.010;4.446;2023-05-24T06:15:57;9.55;;;3.42;;
46563;SDS011;32291;52.010;4.446;2023-05-24T06:16:59;9.65;;;3.63;;
46563;SDS011;32291;52.010;4.446;2023-05-24T06:18:02;11.60;;;3.50;;
46563;SDS011;32291;52.010;4.446;2023-05-24T06:19:04;17.40;;;3.63;;
46563;SDS011;32291;52.010;4.446;2023-05-24T06:20:05;13.82;;;3.97;;
46563;SDS011;32291;52.010;4.446;2023-05-24T06:21:14;10.82;;;2.90;;
46563;SDS011;32291;52.010;4.446;2023-05-24T06:22:17;11.27;;;3.05;;
46563;SDS011;32291;52.010;4.446;2023-05-24T06:23:19;13.40;;;3.30;;
46563;SDS011;32291;52.010;4.446;2023-05-24T06:24:21;13.18;;;3.03;;
46563;SDS011;32291;52.010;4.446;2023-05-24T06:25:23;9.35;;;3.30;;
46563;SDS011;32291;52.010;4.446;2023-05-24T06:26:26;12.93;;;3.55;;
46563;SDS011;32291;52.010;4.446;2023-05-24T06:27:27;14.90;;;4.03;;
46563;SDS011;32291;52.010;4.446;2023-05-24T06:28:29;9.32;;;3.13;;
46563;SDS011;32291;52.010;4.446;2023-05-24T06:29:30;13.63;;;3.88;;
46563;SDS011;32291;52.010;4.446;2023-05-24T06:30:32;12.75;;;3.17;;